sensor_id;sensor_type;location;lat;lon;timestamp;temperature;humidity
2447;DHT22;26430;48.818;9.244;2022-12-18T00:00:42;-7.40;99.90
2447;DHT22;26430;48.818;9.244;2022-12-18T00:03:08;-7.30;99.90
2447;DHT22;26430;48.818;9.244;2022-12-18T00:05:33;-7.20;99.90
2447;DHT22;26430;48.818;9.244;2022-12-18T00:07:59;-7.10;99.90
2447;DHT22;26430;48.818;9.244;2022-12-18T00:10:25;-7.10;99.90
2447;DHT22;26430;48.818;9.244;2022-12-18T00:12:50;-7.50;99.90
2447;DHT22;26430;48.818;9.244;2022-12-18T00:15:16;-7.50;99.90
2447;DHT22;26430;48.818;9.244;2022-12-18T00:17:41;-7.70;99.90
2447;DHT22;26430;48.818;9.244;2022-12-18T00:20:07;-7.60;99.90
2447;DHT22;26430;48.818;9.244;2022-12-18T00:22:33;-7.70;99.90
2447;DHT22;26430;48.818;9.244;2022-12-18T00:24:59;-7.70;99.90
2447;DHT22;26430;48.818;9.244;2022-12-18T00:27:25;-7.90;99.90
2447;DHT22;26430;48.818;9.244;2022-12-18T00:29:50;-7.90;99.90
2447;DHT22;26430;48.818;9.244;2022-12-18T00:32:16;-8.00;99.90
2447;DHT22;26430;48.818;9.244;2022-12-18T00:34:42;-7.80;99.90
2447;DHT22;26430;48.818;9.244;2022-12-18T00:37:07;-7.60;99.90
2447;DHT22;26430;48.818;9.244;2022-12-18T00:39:33;-7.50;99.90
2447;DHT22;26430;48.818;9.244;2022-12-18T00:41:58;-7.40;99.90
2447;DHT22;26430;48.818;9.244;2022-12-18T00:44:43;-7.40;99.90
2447;DHT22;26430;48.818;9.244;2022-12-18T00:47:08;-7.60;99.90
2447;DHT22;26430;48.818;9.244;2022-12-18T00:49:34;-7.50;99.90
2447;DHT22;26430;48.818;9.244;2022-12-18T00:51:59;-7.50;99.90
2447;DHT22;26430;48.818;9.244;2022-12-18T00:54:25;-7.60;99.90
2447;DHT22;26430;48.818;9.244;2022-12-18T00:56:50;-7.60;99.90
2447;DHT22;26430;48.818;9.244;2022-12-18T00:59:17;-7.60;99.90
2447;DHT22;26430;48.818;9.244;2022-12-18T01:01:43;-7.50;99.90
2447;DHT22;26430;48.818;9.244;2022-12-18T01:04:09;-7.70;99.90
2447;DHT22;26430;48.818;9.244;2022-12-18T01:06:35;-7.50;99.90
2447;DHT22;26430;48.818;9.244;2022-12-18T01:09:01;-7.90;99.90
2447;DHT22;26430;48.818;9.244;2022-12-18T01:11:27;-8.10;99.90
2447;DHT22;26430;48.818;9.244;2022-12-18T01:13:54;-8.30;99.90
2447;DHT22;26430;48.818;9.244;2022-12-18T01:16:20;-8.10;99.90
2447;DHT22;26430;48.818;9.244;2022-12-18T01:18:46;-8.10;99.90
2447;DHT22;26430;48.818;9.244;2022-12-18T01:21:16;-8.00;99.90
2447;DHT22;26430;48.818;9.244;2022-12-18T01:23:45;-7.80;99.90
2447;DHT22;26430;48.818;9.244;2022-12-18T01:26:14;-8.10;99.90
2447;DHT22;26430;48.818;9.244;2022-12-18T01:28:40;-7.90;99.90
2447;DHT22;26430;48.818;9.244;2022-12-18T01:31:22;-8.00;99.90
2447;DHT22;26430;48.818;9.244;2022-12-18T01:33:47;-8.00;99.90
2447;DHT22;26430;48.818;9.244;2022-12-18T01:36:33;-8.10;99.90
2447;DHT22;26430;48.818;9.244;2022-12-18T01:39:03;-8.30;99.90
2447;DHT22;26430;48.818;9.244;2022-12-18T01:41:30;-8.20;99.90
2447;DHT22;26430;48.818;9.244;2022-12-18T01:53:11;-8.00;99.90
2447;DHT22;26430;48.818;9.244;2022-12-18T01:55:43;-8.30;99.90
2447;DHT22;26430;48.818;9.244;2022-12-18T01:58:13;-8.30;99.90
2447;DHT22;26430;48.818;9.244;2022-12-18T02:00:39;-8.10;99.90
2447;DHT22;26430;48.818;9.244;2022-12-18T02:03:05;-8.00;99.90
2447;DHT22;26430;48.818;9.244;2022-12-18T02:05:49;-8.30;99.90
2447;DHT22;26430;48.818;9.244;2022-12-18T02:08:49;-8.30;99.90
2447;DHT22;26430;48.818;9.244;2022-12-18T02:11:18;-8.30;99.90
2447;DHT22;26430;48.818;9.244;2022-12-18T02:13:59;-8.40;99.90
2447;DHT22;26430;48.818;9.244;2022-12-18T02:25:28;-8.20;99.90
2447;DHT22;26430;48.818;9.244;2022-12-18T02:28:02;-8.30;99.90
2447;DHT22;26430;48.818;9.244;2022-12-18T02:30:31;-8.20;99.90
2447;DHT22;26430;48.818;9.244;2022-12-18T02:32:59;-8.00;99.90
2447;DHT22;26430;48.818;9.244;2022-12-18T02:35:28;-8.00;99.90
2447;DHT22;26430;48.818;9.244;2022-12-18T02:37:55;-8.00;99.90
2447;DHT22;26430;48.818;9.244;2022-12-18T02:40:23;-7.90;99.90
2447;DHT22;26430;48.818;9.244;2022-12-18T02:42:49;-8.10;99.90
2447;DHT22;26430;48.818;9.244;2022-12-18T02:45:15;-8.00;99.90
2447;DHT22;26430;48.818;9.244;2022-12-18T02:47:43;-7.90;99.90
2447;DHT22;26430;48.818;9.244;2022-12-18T02:50:38;-7.80;99.90
2447;DHT22;26430;48.818;9.244;2022-12-18T02:53:10;-7.60;99.90
2447;DHT22;26430;48.818;9.244;2022-12-18T03:01:21;-7.50;99.90
2447;DHT22;26430;48.818;9.244;2022-12-18T03:04:02;-7.50;99.90
2447;DHT22;26430;48.818;9.244;2022-12-18T03:06:37;-7.40;99.90
2447;DHT22;26430;48.818;9.244;2022-12-18T03:09:12;-7.50;99.90
2447;DHT22;26430;48.818;9.244;2022-12-18T03:11:42;-7.60;99.90
2447;DHT22;26430;48.818;9.244;2022-12-18T03:14:31;-7.60;99.90
2447;DHT22;26430;48.818;9.244;2022-12-18T03:17:02;-7.50;99.90
2447;DHT22;26430;48.818;9.244;2022-12-18T03:19:32;-7.50;99.90
2447;DHT22;26430;48.818;9.244;2022-12-18T03:22:00;-7.50;99.90
2447;DHT22;26430;48.818;9.244;2022-12-18T03:24:29;-7.30;99.90
2447;DHT22;26430;48.818;9.244;2022-12-18T03:27:10;-7.60;99.90
2447;DHT22;26430;48.818;9.244;2022-12-18T03:29:54;-7.50;99.90
2447;DHT22;26430;48.818;9.244;2022-12-18T03:32:29;-7.60;99.90
2447;DHT22;26430;48.818;9.244;2022-12-18T03:34:59;-7.60;99.90
2447;DHT22;26430;48.818;9.244;2022-12-18T03:37:28;-7.40;99.90
2447;DHT22;26430;48.818;9.244;2022-12-18T03:39:56;-7.40;99.90
2447;DHT22;26430;48.818;9.244;2022-12-18T03:45:18;-7.30;99.90
2447;DHT22;26430;48.818;9.244;2022-12-18T03:48:14;-7.30;99.90
2447;DHT22;26430;48.818;9.244;2022-12-18T03:51:05;-7.30;99.90
2447;DHT22;26430;48.818;9.244;2022-12-18T03:56:08;-7.00;99.90
2447;DHT22;26430;48.818;9.244;2022-12-18T03:58:37;-6.90;99.90
2447;DHT22;26430;48.818;9.244;2022-12-18T04:01:05;-6.90;99.90
2447;DHT22;26430;48.818;9.244;2022-12-18T04:03:34;-6.80;99.90
2447;DHT22;26430;48.818;9.244;2022-12-18T04:06:01;-6.70;99.90
2447;DHT22;26430;48.818;9.244;2022-12-18T04:08:28;-6.80;99.90
2447;DHT22;26430;48.818;9.244;2022-12-18T04:10:54;-6.80;99.90
2447;DHT22;26430;48.818;9.244;2022-12-18T04:13:24;-6.70;99.90
2447;DHT22;26430;48.818;9.244;2022-12-18T04:15:52;-6.80;99.90
2447;DHT22;26430;48.818;9.244;2022-12-18T04:18:18;-6.80;99.90
2447;DHT22;26430;48.818;9.244;2022-12-18T04:20:44;-6.80;99.90
2447;DHT22;26430;48.818;9.244;2022-12-18T04:23:09;-7.20;99.90
2447;DHT22;26430;48.818;9.244;2022-12-18T04:25:35;-7.30;99.90
2447;DHT22;26430;48.818;9.244;2022-12-18T04:28:00;-7.40;99.90
2447;DHT22;26430;48.818;9.244;2022-12-18T04:30:26;-7.40;99.90
2447;DHT22;26430;48.818;9.244;2022-12-18T04:32:52;-7.40;99.90
2447;DHT22;26430;48.818;9.244;2022-12-18T04:35:17;-7.70;99.90
2447;DHT22;26430;48.818;9.244;2022-12-18T04:37:43;-7.70;99.90
2447;DHT22;26430;48.818;9.244;2022-12-18T04:40:09;-7.80;99.90
2447;DHT22;26430;48.818;9.244;2022-12-18T04:42:35;-8.20;99.90
2447;DHT22;26430;48.818;9.244;2022-12-18T04:45:00;-8.30;99.90
2447;DHT22;26430;48.818;9.244;2022-12-18T04:47:26;-8.40;99.90
2447;DHT22;26430;48.818;9.244;2022-12-18T04:49:51;-8.50;99.90
2447;DHT22;26430;48.818;9.244;2022-12-18T04:52:17;-8.40;99.90
2447;DHT22;26430;48.818;9.244;2022-12-18T04:54:43;-8.40;99.90
2447;DHT22;26430;48.818;9.244;2022-12-18T04:57:09;-8.10;99.90
2447;DHT22;26430;48.818;9.244;2022-12-18T04:59:35;-7.90;99.90
2447;DHT22;26430;48.818;9.244;2022-12-18T05:02:01;-7.80;99.90
2447;DHT22;26430;48.818;9.244;2022-12-18T05:04:26;-7.80;99.90
2447;DHT22;26430;48.818;9.244;2022-12-18T05:06:52;-7.70;99.90
2447;DHT22;26430;48.818;9.244;2022-12-18T05:09:18;-7.70;99.90
2447;DHT22;26430;48.818;9.244;2022-12-18T05:11:43;-8.20;99.90
2447;DHT22;26430;48.818;9.244;2022-12-18T05:14:09;-8.40;99.90
2447;DHT22;26430;48.818;9.244;2022-12-18T05:16:34;-8.30;99.90
2447;DHT22;26430;48.818;9.244;2022-12-18T05:19:00;-8.10;99.90
2447;DHT22;26430;48.818;9.244;2022-12-18T05:21:26;-8.10;99.90
2447;DHT22;26430;48.818;9.244;2022-12-18T05:23:51;-8.00;99.90
2447;DHT22;26430;48.818;9.244;2022-12-18T05:26:18;-7.90;99.90
2447;DHT22;26430;48.818;9.244;2022-12-18T05:28:45;-7.90;99.90
2447;DHT22;26430;48.818;9.244;2022-12-18T05:31:11;-7.90;99.90
2447;DHT22;26430;48.818;9.244;2022-12-18T05:33:37;-8.00;99.90
2447;DHT22;26430;48.818;9.244;2022-12-18T05:36:05;-8.00;99.90
2447;DHT22;26430;48.818;9.244;2022-12-18T05:38:33;-8.00;99.90
2447;DHT22;26430;48.818;9.244;2022-12-18T05:40:59;-8.30;99.90
2447;DHT22;26430;48.818;9.244;2022-12-18T05:43:25;-8.30;99.90
2447;DHT22;26430;48.818;9.244;2022-12-18T05:45:52;-8.50;99.90
2447;DHT22;26430;48.818;9.244;2022-12-18T05:48:18;-8.40;99.90
2447;DHT22;26430;48.818;9.244;2022-12-18T05:50:45;-8.30;99.90
2447;DHT22;26430;48.818;9.244;2022-12-18T05:53:13;-8.40;99.90
2447;DHT22;26430;48.818;9.244;2022-12-18T05:55:41;-8.30;99.90
2447;DHT22;26430;48.818;9.244;2022-12-18T05:58:08;-8.60;99.90
2447;DHT22;26430;48.818;9.244;2022-12-18T06:00:37;-8.60;99.90
2447;DHT22;26430;48.818;9.244;2022-12-18T06:03:07;-8.50;99.90
2447;DHT22;26430;48.818;9.244;2022-12-18T06:05:38;-8.40;99.90
2447;DHT22;26430;48.818;9.244;2022-12-18T06:08:04;-8.40;99.90
2447;DHT22;26430;48.818;9.244;2022-12-18T06:10:30;-8.30;99.90
2447;DHT22;26430;48.818;9.244;2022-12-18T06:12:56;-8.20;99.90
2447;DHT22;26430;48.818;9.244;2022-12-18T06:15:22;-8.20;99.90
2447;DHT22;26430;48.818;9.244;2022-12-18T06:17:47;-8.30;99.90
2447;DHT22;26430;48.818;9.244;2022-12-18T06:20:13;-8.20;99.90
2447;DHT22;26430;48.818;9.244;2022-12-18T06:22:38;-8.30;99.90
2447;DHT22;26430;48.818;9.244;2022-12-18T06:25:05;-8.20;99.90
2447;DHT22;26430;48.818;9.244;2022-12-18T06:27:31;-8.10;99.90
2447;DHT22;26430;48.818;9.244;2022-12-18T06:29:59;-8.30;99.90
2447;DHT22;26430;48.818;9.244;2022-12-18T06:32:25;-8.40;99.90
2447;DHT22;26430;48.818;9.244;2022-12-18T06:34:50;-8.40;99.90
2447;DHT22;26430;48.818;9.244;2022-12-18T06:37:16;-8.40;99.90
2447;DHT22;26430;48.818;9.244;2022-12-18T06:39:41;-8.40;99.90
2447;DHT22;26430;48.818;9.244;2022-12-18T06:42:07;-8.50;99.90
2447;DHT22;26430;48.818;9.244;2022-12-18T06:44:33;-8.80;99.90
2447;DHT22;26430;48.818;9.244;2022-12-18T06:46:58;-8.70;99.90
2447;DHT22;26430;48.818;9.244;2022-12-18T06:49:24;-8.80;99.90
2447;DHT22;26430;48.818;9.244;2022-12-18T06:51:49;-8.90;99.90
2447;DHT22;26430;48.818;9.244;2022-12-18T06:54:15;-8.90;99.90
2447;DHT22;26430;48.818;9.244;2022-12-18T06:56:41;-9.00;99.90
2447;DHT22;26430;48.818;9.244;2022-12-18T06:59:06;-9.10;99.90
2447;DHT22;26430;48.818;9.244;2022-12-18T07:01:32;-8.90;99.90
2447;DHT22;26430;48.818;9.244;2022-12-18T07:03:58;-8.60;99.90
2447;DHT22;26430;48.818;9.244;2022-12-18T07:06:24;-8.40;99.90
2447;DHT22;26430;48.818;9.244;2022-12-18T07:08:51;-8.30;99.90
2447;DHT22;26430;48.818;9.244;2022-12-18T07:11:18;-8.30;99.90
2447;DHT22;26430;48.818;9.244;2022-12-18T07:13:44;-8.00;99.90
2447;DHT22;26430;48.818;9.244;2022-12-18T07:16:18;-7.90;99.90
2447;DHT22;26430;48.818;9.244;2022-12-18T07:18:45;-7.90;99.90
2447;DHT22;26430;48.818;9.244;2022-12-18T07:21:13;-8.00;99.90
2447;DHT22;26430;48.818;9.244;2022-12-18T07:23:39;-8.10;99.90
2447;DHT22;26430;48.818;9.244;2022-12-18T07:26:11;-8.20;99.90
2447;DHT22;26430;48.818;9.244;2022-12-18T07:28:38;-8.30;99.90
2447;DHT22;26430;48.818;9.244;2022-12-18T07:31:12;-8.40;99.90
2447;DHT22;26430;48.818;9.244;2022-12-18T07:33:38;-8.50;99.90
2447;DHT22;26430;48.818;9.244;2022-12-18T07:36:06;-8.70;99.90
2447;DHT22;26430;48.818;9.244;2022-12-18T07:38:34;-8.70;99.90
2447;DHT22;26430;48.818;9.244;2022-12-18T07:41:05;-8.60;99.90
2447;DHT22;26430;48.818;9.244;2022-12-18T07:43:31;-8.70;99.90
2447;DHT22;26430;48.818;9.244;2022-12-18T07:45:57;-8.80;99.90
2447;DHT22;26430;48.818;9.244;2022-12-18T07:48:23;-8.60;99.90
2447;DHT22;26430;48.818;9.244;2022-12-18T07:50:49;-8.50;99.90
2447;DHT22;26430;48.818;9.244;2022-12-18T07:53:14;-8.60;99.90
2447;DHT22;26430;48.818;9.244;2022-12-18T07:55:41;-8.40;99.90
2447;DHT22;26430;48.818;9.244;2022-12-18T07:58:07;-8.30;99.90
2447;DHT22;26430;48.818;9.244;2022-12-18T08:00:33;-8.40;99.90
2447;DHT22;26430;48.818;9.244;2022-12-18T08:03:00;-8.30;99.90
2447;DHT22;26430;48.818;9.244;2022-12-18T08:05:26;-8.30;99.90
2447;DHT22;26430;48.818;9.244;2022-12-18T08:07:54;-8.30;99.90
2447;DHT22;26430;48.818;9.244;2022-12-18T08:10:21;-8.40;99.90
2447;DHT22;26430;48.818;9.244;2022-12-18T08:12:49;-8.60;99.90
2447;DHT22;26430;48.818;9.244;2022-12-18T08:15:15;-8.60;99.90
2447;DHT22;26430;48.818;9.244;2022-12-18T08:17:41;-8.70;99.90
2447;DHT22;26430;48.818;9.244;2022-12-18T08:20:07;-8.40;99.90
2447;DHT22;26430;48.818;9.244;2022-12-18T08:22:34;-8.30;99.90
2447;DHT22;26430;48.818;9.244;2022-12-18T08:25:04;-8.30;99.90
2447;DHT22;26430;48.818;9.244;2022-12-18T08:27:30;-8.00;99.90
2447;DHT22;26430;48.818;9.244;2022-12-18T08:29:56;-8.10;99.90
2447;DHT22;26430;48.818;9.244;2022-12-18T08:32:22;-8.10;99.90
2447;DHT22;26430;48.818;9.244;2022-12-18T08:34:47;-7.90;99.90
2447;DHT22;26430;48.818;9.244;2022-12-18T08:37:13;-7.80;99.90
2447;DHT22;26430;48.818;9.244;2022-12-18T08:39:39;-7.70;99.90
2447;DHT22;26430;48.818;9.244;2022-12-18T08:42:04;-7.90;99.90
2447;DHT22;26430;48.818;9.244;2022-12-18T08:44:49;-7.90;99.90
2447;DHT22;26430;48.818;9.244;2022-12-18T08:47:14;-7.70;99.90
2447;DHT22;26430;48.818;9.244;2022-12-18T08:49:40;-7.80;99.90
2447;DHT22;26430;48.818;9.244;2022-12-18T08:52:05;-7.70;99.90
2447;DHT22;26430;48.818;9.244;2022-12-18T08:54:31;-7.50;99.90
2447;DHT22;26430;48.818;9.244;2022-12-18T08:56:58;-7.30;99.90
2447;DHT22;26430;48.818;9.244;2022-12-18T08:59:23;-7.40;99.90
2447;DHT22;26430;48.818;9.244;2022-12-18T09:01:49;-7.50;99.90
2447;DHT22;26430;48.818;9.244;2022-12-18T09:04:15;-7.70;99.90
2447;DHT22;26430;48.818;9.244;2022-12-18T09:06:41;-7.40;99.90
2447;DHT22;26430;48.818;9.244;2022-12-18T09:09:07;-7.30;99.90
2447;DHT22;26430;48.818;9.244;2022-12-18T09:11:33;-6.80;99.90
2447;DHT22;26430;48.818;9.244;2022-12-18T09:14:01;-6.80;99.90
2447;DHT22;26430;48.818;9.244;2022-12-18T09:16:27;-6.70;99.90
2447;DHT22;26430;48.818;9.244;2022-12-18T09:18:57;-6.50;99.90
2447;DHT22;26430;48.818;9.244;2022-12-18T09:21:28;-6.00;99.90
2447;DHT22;26430;48.818;9.244;2022-12-18T09:23:55;-6.00;99.90
2447;DHT22;26430;48.818;9.244;2022-12-18T09:26:22;-6.30;99.90
2447;DHT22;26430;48.818;9.244;2022-12-18T09:28:48;-6.50;99.90
2447;DHT22;26430;48.818;9.244;2022-12-18T09:31:19;-6.90;99.90
2447;DHT22;26430;48.818;9.244;2022-12-18T09:33:45;-6.30;99.90
2447;DHT22;26430;48.818;9.244;2022-12-18T09:36:13;-6.10;99.90
2447;DHT22;26430;48.818;9.244;2022-12-18T09:38:40;-5.80;99.90
2447;DHT22;26430;48.818;9.244;2022-12-18T09:44:05;-5.10;99.90
2447;DHT22;26430;48.818;9.244;2022-12-18T09:46:39;-4.40;99.90
2447;DHT22;26430;48.818;9.244;2022-12-18T09:49:12;-5.00;99.90
2447;DHT22;26430;48.818;9.244;2022-12-18T09:51:46;-4.30;99.90
2447;DHT22;26430;48.818;9.244;2022-12-18T09:54:32;-4.80;99.90
2447;DHT22;26430;48.818;9.244;2022-12-18T09:56:59;-4.50;99.90
2447;DHT22;26430;48.818;9.244;2022-12-18T09:59:29;-4.40;99.90
2447;DHT22;26430;48.818;9.244;2022-12-18T10:01:57;-3.70;99.90
2447;DHT22;26430;48.818;9.244;2022-12-18T10:04:23;-3.50;99.90
2447;DHT22;26430;48.818;9.244;2022-12-18T10:07:24;-3.30;99.90
2447;DHT22;26430;48.818;9.244;2022-12-18T10:13:15;-3.40;99.90
2447;DHT22;26430;48.818;9.244;2022-12-18T10:21:00;-3.00;99.90
2447;DHT22;26430;48.818;9.244;2022-12-18T10:26:24;-2.90;99.90
2447;DHT22;26430;48.818;9.244;2022-12-18T10:28:51;-2.80;99.90
2447;DHT22;26430;48.818;9.244;2022-12-18T10:31:21;-3.20;99.90
2447;DHT22;26430;48.818;9.244;2022-12-18T10:33:47;-2.80;99.90
2447;DHT22;26430;48.818;9.244;2022-12-18T10:36:13;-3.10;99.90
2447;DHT22;26430;48.818;9.244;2022-12-18T10:38:39;-2.90;99.90
2447;DHT22;26430;48.818;9.244;2022-12-18T10:43:47;-2.50;99.90
2447;DHT22;26430;48.818;9.244;2022-12-18T10:46:19;-2.30;99.90
2447;DHT22;26430;48.818;9.244;2022-12-18T10:48:53;-2.30;99.90
2447;DHT22;26430;48.818;9.244;2022-12-18T10:51:36;-2.90;99.90
2447;DHT22;26430;48.818;9.244;2022-12-18T10:54:07;-3.30;99.90
2447;DHT22;26430;48.818;9.244;2022-12-18T10:56:38;-3.20;99.90
2447;DHT22;26430;48.818;9.244;2022-12-18T10:59:06;-3.50;99.90
2447;DHT22;26430;48.818;9.244;2022-12-18T11:01:53;-3.60;99.90
2447;DHT22;26430;48.818;9.244;2022-12-18T11:04:49;-3.50;99.90
2447;DHT22;26430;48.818;9.244;2022-12-18T11:07:15;-3.40;99.90
2447;DHT22;26430;48.818;9.244;2022-12-18T11:09:41;-2.90;99.90
2447;DHT22;26430;48.818;9.244;2022-12-18T11:12:21;-2.60;99.90
2447;DHT22;26430;48.818;9.244;2022-12-18T11:14:53;-2.70;99.90
2447;DHT22;26430;48.818;9.244;2022-12-18T11:17:32;-2.50;99.90
2447;DHT22;26430;48.818;9.244;2022-12-18T11:20:01;-2.30;99.90
2447;DHT22;26430;48.818;9.244;2022-12-18T11:22:29;-2.30;99.90
2447;DHT22;26430;48.818;9.244;2022-12-18T11:25:16;-2.30;99.90
2447;DHT22;26430;48.818;9.244;2022-12-18T11:27:48;-2.20;99.90
2447;DHT22;26430;48.818;9.244;2022-12-18T11:30:22;-2.30;99.90
2447;DHT22;26430;48.818;9.244;2022-12-18T11:32:55;-2.10;99.90
2447;DHT22;26430;48.818;9.244;2022-12-18T11:35:39;-2.20;99.90
2447;DHT22;26430;48.818;9.244;2022-12-18T11:38:27;-2.50;99.90
2447;DHT22;26430;48.818;9.244;2022-12-18T11:43:52;-2.50;99.90
2447;DHT22;26430;48.818;9.244;2022-12-18T11:46:39;-2.00;99.90
2447;DHT22;26430;48.818;9.244;2022-12-18T11:49:32;-2.10;99.90
2447;DHT22;26430;48.818;9.244;2022-12-18T11:54:34;-1.40;99.90
2447;DHT22;26430;48.818;9.244;2022-12-18T11:57:15;-1.20;99.90
2447;DHT22;26430;48.818;9.244;2022-12-18T11:59:55;-1.60;99.90
2447;DHT22;26430;48.818;9.244;2022-12-18T12:13:33;-1.50;99.90
2447;DHT22;26430;48.818;9.244;2022-12-18T12:16:29;-1.50;99.90
2447;DHT22;26430;48.818;9.244;2022-12-18T12:21:41;-1.50;99.90
2447;DHT22;26430;48.818;9.244;2022-12-18T12:30:24;-1.20;99.90
2447;DHT22;26430;48.818;9.244;2022-12-18T12:33:22;-1.30;99.90
2447;DHT22;26430;48.818;9.244;2022-12-18T12:38:49;-1.60;99.90
2447;DHT22;26430;48.818;9.244;2022-12-18T12:41:20;-1.40;99.90
2447;DHT22;26430;48.818;9.244;2022-12-18T12:44:09;-1.30;99.90
2447;DHT22;26430;48.818;9.244;2022-12-18T12:46:40;-1.10;99.90
2447;DHT22;26430;48.818;9.244;2022-12-18T12:49:17;-1.40;99.90
2447;DHT22;26430;48.818;9.244;2022-12-18T12:51:47;-1.30;99.90
2447;DHT22;26430;48.818;9.244;2022-12-18T12:54:19;-1.00;99.90
2447;DHT22;26430;48.818;9.244;2022-12-18T13:02:33;-0.50;99.90
2447;DHT22;26430;48.818;9.244;2022-12-18T13:05:39;-0.60;99.90
2447;DHT22;26430;48.818;9.244;2022-12-18T13:08:12;-0.50;99.90
2447;DHT22;26430;48.818;9.244;2022-12-18T13:10:47;-0.20;99.90
2447;DHT22;26430;48.818;9.244;2022-12-18T13:13:15;-0.30;99.90
2447;DHT22;26430;48.818;9.244;2022-12-18T13:15:42;-0.50;99.90
2447;DHT22;26430;48.818;9.244;2022-12-18T13:20:40;-0.80;99.90
2447;DHT22;26430;48.818;9.244;2022-12-18T13:25:51;-0.70;99.90
2447;DHT22;26430;48.818;9.244;2022-12-18T13:31:02;-1.00;99.90
2447;DHT22;26430;48.818;9.244;2022-12-18T13:39:09;-0.90;99.90
2447;DHT22;26430;48.818;9.244;2022-12-18T13:41:35;-1.10;99.90
2447;DHT22;26430;48.818;9.244;2022-12-18T13:44:13;-1.00;99.90
2447;DHT22;26430;48.818;9.244;2022-12-18T13:46:46;-1.00;99.90
2447;DHT22;26430;48.818;9.244;2022-12-18T13:51:46;-1.00;99.90
2447;DHT22;26430;48.818;9.244;2022-12-18T13:56:47;-0.80;99.90
2447;DHT22;26430;48.818;9.244;2022-12-18T13:59:19;-0.90;99.90
2447;DHT22;26430;48.818;9.244;2022-12-18T14:02:20;-0.80;99.90
2447;DHT22;26430;48.818;9.244;2022-12-18T14:04:38;-1.00;99.90
2447;DHT22;26430;48.818;9.244;2022-12-18T14:07:22;-1.30;99.90
2447;DHT22;26430;48.818;9.244;2022-12-18T14:09:55;-1.40;99.90
2447;DHT22;26430;48.818;9.244;2022-12-18T14:12:28;-1.40;99.90
2447;DHT22;26430;48.818;9.244;2022-12-18T14:20:48;-1.50;99.90
2447;DHT22;26430;48.818;9.244;2022-12-18T14:25:59;-1.40;99.90
2447;DHT22;26430;48.818;9.244;2022-12-18T14:28:25;-1.40;99.90
2447;DHT22;26430;48.818;9.244;2022-12-18T14:30:52;-1.30;99.90
2447;DHT22;26430;48.818;9.244;2022-12-18T14:33:26;-1.30;99.90
2447;DHT22;26430;48.818;9.244;2022-12-18T14:41:05;-1.40;99.90
2447;DHT22;26430;48.818;9.244;2022-12-18T14:43:33;-1.40;99.90
2447;DHT22;26430;48.818;9.244;2022-12-18T14:46:00;-1.50;99.90
2447;DHT22;26430;48.818;9.244;2022-12-18T14:51:07;-1.50;99.90
2447;DHT22;26430;48.818;9.244;2022-12-18T14:53:43;-1.50;99.90
2447;DHT22;26430;48.818;9.244;2022-12-18T15:07:49;-1.80;99.90
2447;DHT22;26430;48.818;9.244;2022-12-18T15:10:26;-1.70;99.90
2447;DHT22;26430;48.818;9.244;2022-12-18T15:18:15;-1.80;99.90
2447;DHT22;26430;48.818;9.244;2022-12-18T15:25:46;-1.80;99.90
2447;DHT22;26430;48.818;9.244;2022-12-18T15:28:19;-1.80;99.90
2447;DHT22;26430;48.818;9.244;2022-12-18T15:33:59;-1.90;99.90
2447;DHT22;26430;48.818;9.244;2022-12-18T15:36:29;-1.90;99.90
2447;DHT22;26430;48.818;9.244;2022-12-18T15:38:56;-2.00;99.90
2447;DHT22;26430;48.818;9.244;2022-12-18T15:41:23;-2.00;99.90
2447;DHT22;26430;48.818;9.244;2022-12-18T15:43:50;-2.00;99.90
2447;DHT22;26430;48.818;9.244;2022-12-18T15:46:18;-2.00;99.90
2447;DHT22;26430;48.818;9.244;2022-12-18T15:48:47;-2.10;99.90
2447;DHT22;26430;48.818;9.244;2022-12-18T15:51:29;-2.30;99.90
2447;DHT22;26430;48.818;9.244;2022-12-18T15:53:58;-2.30;99.90
2447;DHT22;26430;48.818;9.244;2022-12-18T15:56:25;-2.40;99.90
2447;DHT22;26430;48.818;9.244;2022-12-18T15:59:12;-2.40;99.90
2447;DHT22;26430;48.818;9.244;2022-12-18T16:01:39;-2.40;99.90
2447;DHT22;26430;48.818;9.244;2022-12-18T16:04:05;-2.50;99.90
2447;DHT22;26430;48.818;9.244;2022-12-18T16:06:30;-2.50;99.90
2447;DHT22;26430;48.818;9.244;2022-12-18T16:08:56;-2.40;99.90
2447;DHT22;26430;48.818;9.244;2022-12-18T16:11:25;-2.30;99.90
2447;DHT22;26430;48.818;9.244;2022-12-18T16:14:17;-2.30;99.90
2447;DHT22;26430;48.818;9.244;2022-12-18T16:16:45;-2.30;99.90
2447;DHT22;26430;48.818;9.244;2022-12-18T16:19:11;-2.30;99.90
2447;DHT22;26430;48.818;9.244;2022-12-18T16:21:36;-2.30;99.90
2447;DHT22;26430;48.818;9.244;2022-12-18T16:24:02;-2.30;99.90
2447;DHT22;26430;48.818;9.244;2022-12-18T16:26:28;-2.30;99.90
2447;DHT22;26430;48.818;9.244;2022-12-18T16:28:53;-2.30;99.90
2447;DHT22;26430;48.818;9.244;2022-12-18T16:31:19;-2.30;99.90
2447;DHT22;26430;48.818;9.244;2022-12-18T16:33:46;-2.30;99.90
2447;DHT22;26430;48.818;9.244;2022-12-18T16:36:11;-2.30;99.90
2447;DHT22;26430;48.818;9.244;2022-12-18T16:38:37;-2.30;99.90
2447;DHT22;26430;48.818;9.244;2022-12-18T16:41:17;-2.40;99.90
2447;DHT22;26430;48.818;9.244;2022-12-18T16:44:01;-2.40;99.90
2447;DHT22;26430;48.818;9.244;2022-12-18T16:46:27;-2.50;99.90
2447;DHT22;26430;48.818;9.244;2022-12-18T16:48:53;-2.60;99.90
2447;DHT22;26430;48.818;9.244;2022-12-18T16:51:18;-2.60;99.90
2447;DHT22;26430;48.818;9.244;2022-12-18T16:53:44;-2.50;99.90
2447;DHT22;26430;48.818;9.244;2022-12-18T16:56:10;-2.60;99.90
2447;DHT22;26430;48.818;9.244;2022-12-18T16:58:35;-2.60;99.90
2447;DHT22;26430;48.818;9.244;2022-12-18T17:01:06;-2.50;99.90
2447;DHT22;26430;48.818;9.244;2022-12-18T17:03:32;-2.50;99.90
2447;DHT22;26430;48.818;9.244;2022-12-18T17:06:02;-2.50;99.90
2447;DHT22;26430;48.818;9.244;2022-12-18T17:08:28;-2.60;99.90
2447;DHT22;26430;48.818;9.244;2022-12-18T17:10:54;-2.50;99.90
2447;DHT22;26430;48.818;9.244;2022-12-18T17:13:25;-2.60;99.90
2447;DHT22;26430;48.818;9.244;2022-12-18T17:15:51;-2.70;99.90
2447;DHT22;26430;48.818;9.244;2022-12-18T17:18:16;-2.60;99.90
2447;DHT22;26430;48.818;9.244;2022-12-18T17:20:42;-2.50;99.90
2447;DHT22;26430;48.818;9.244;2022-12-18T17:23:08;-2.50;99.90
2447;DHT22;26430;48.818;9.244;2022-12-18T17:25:33;-2.60;99.90
2447;DHT22;26430;48.818;9.244;2022-12-18T17:27:59;-2.60;99.90
2447;DHT22;26430;48.818;9.244;2022-12-18T17:30:24;-2.50;99.90
2447;DHT22;26430;48.818;9.244;2022-12-18T17:32:50;-2.50;99.90
2447;DHT22;26430;48.818;9.244;2022-12-18T17:35:16;-2.50;99.90
2447;DHT22;26430;48.818;9.244;2022-12-18T17:37:41;-2.50;99.90
2447;DHT22;26430;48.818;9.244;2022-12-18T17:40:07;-2.50;99.90
2447;DHT22;26430;48.818;9.244;2022-12-18T17:42:33;-2.40;99.90
2447;DHT22;26430;48.818;9.244;2022-12-18T17:44:59;-2.40;99.90
2447;DHT22;26430;48.818;9.244;2022-12-18T17:47:24;-2.30;99.90
2447;DHT22;26430;48.818;9.244;2022-12-18T17:49:50;-2.30;99.90
2447;DHT22;26430;48.818;9.244;2022-12-18T17:52:16;-2.30;99.90
2447;DHT22;26430;48.818;9.244;2022-12-18T17:54:41;-2.40;99.90
2447;DHT22;26430;48.818;9.244;2022-12-18T17:57:08;-2.50;99.90
2447;DHT22;26430;48.818;9.244;2022-12-18T17:59:34;-2.60;99.90
2447;DHT22;26430;48.818;9.244;2022-12-18T18:02:00;-2.60;99.90
2447;DHT22;26430;48.818;9.244;2022-12-18T18:04:26;-2.60;99.90
2447;DHT22;26430;48.818;9.244;2022-12-18T18:06:51;-2.60;99.90
2447;DHT22;26430;48.818;9.244;2022-12-18T18:09:17;-2.50;99.90
2447;DHT22;26430;48.818;9.244;2022-12-18T18:11:43;-2.40;99.90
2447;DHT22;26430;48.818;9.244;2022-12-18T18:14:28;-2.20;99.90
2447;DHT22;26430;48.818;9.244;2022-12-18T18:16:54;-2.30;99.90
2447;DHT22;26430;48.818;9.244;2022-12-18T18:19:22;-2.40;99.90